sensor_id;sensor_type;location;lat;lon;timestamp;temperature;humidity
21481;DHT22;10902;48.158;8.634;2023-08-12T00:01:50;16.50;99.90
21481;DHT22;10902;48.158;8.634;2023-08-12T00:04:35;16.40;99.90
21481;DHT22;10902;48.158;8.634;2023-08-12T00:07:21;16.40;99.90
21481;DHT22;10902;48.158;8.634;2023-08-12T00:10:07;16.30;99.90
21481;DHT22;10902;48.158;8.634;2023-08-12T00:12:54;16.20;99.90
21481;DHT22;10902;48.158;8.634;2023-08-12T00:15:39;16.10;99.90
21481;DHT22;10902;48.158;8.634;2023-08-12T00:18:26;16.10;99.90
21481;DHT22;10902;48.158;8.634;2023-08-12T00:21:12;16.10;99.90
21481;DHT22;10902;48.158;8.634;2023-08-12T00:23:57;16.00;99.90
21481;DHT22;10902;48.158;8.634;2023-08-12T00:26:43;16.10;99.90
21481;DHT22;10902;48.158;8.634;2023-08-12T00:29:28;16.10;99.90
21481;DHT22;10902;48.158;8.634;2023-08-12T00:32:14;16.10;99.90
21481;DHT22;10902;48.158;8.634;2023-08-12T00:35:00;16.00;99.90
21481;DHT22;10902;48.158;8.634;2023-08-12T00:37:45;15.90;99.90
21481;DHT22;10902;48.158;8.634;2023-08-12T00:40:31;15.90;99.90
21481;DHT22;10902;48.158;8.634;2023-08-12T00:43:17;15.90;99.90
21481;DHT22;10902;48.158;8.634;2023-08-12T00:46:03;15.90;99.90
21481;DHT22;10902;48.158;8.634;2023-08-12T00:48:49;15.80;99.90
21481;DHT22;10902;48.158;8.634;2023-08-12T00:51:35;15.80;99.90
21481;DHT22;10902;48.158;8.634;2023-08-12T00:54:22;15.90;99.90
21481;DHT22;10902;48.158;8.634;2023-08-12T00:57:08;15.80;99.90
21481;DHT22;10902;48.158;8.634;2023-08-12T00:59:55;15.80;99.90
21481;DHT22;10902;48.158;8.634;2023-08-12T01:02:44;15.70;99.90
21481;DHT22;10902;48.158;8.634;2023-08-12T01:05:33;15.70;99.90
21481;DHT22;10902;48.158;8.634;2023-08-12T01:08:19;15.80;99.90
21481;DHT22;10902;48.158;8.634;2023-08-12T01:11:14;15.80;99.90
21481;DHT22;10902;48.158;8.634;2023-08-12T01:14:23;15.90;99.90
21481;DHT22;10902;48.158;8.634;2023-08-12T01:17:12;15.90;99.90
21481;DHT22;10902;48.158;8.634;2023-08-12T01:20:00;15.90;99.90
21481;DHT22;10902;48.158;8.634;2023-08-12T01:22:48;16.00;99.90
21481;DHT22;10902;48.158;8.634;2023-08-12T01:25:35;16.10;99.90
21481;DHT22;10902;48.158;8.634;2023-08-12T01:28:21;16.30;99.90
21481;DHT22;10902;48.158;8.634;2023-08-12T01:31:20;16.20;99.90
21481;DHT22;10902;48.158;8.634;2023-08-12T01:34:12;16.20;99.90
21481;DHT22;10902;48.158;8.634;2023-08-12T01:37:02;16.20;99.90
21481;DHT22;10902;48.158;8.634;2023-08-12T01:39:50;16.00;99.90
21481;DHT22;10902;48.158;8.634;2023-08-12T01:42:39;15.90;99.90
21481;DHT22;10902;48.158;8.634;2023-08-12T01:45:25;15.80;99.90
21481;DHT22;10902;48.158;8.634;2023-08-12T01:48:11;15.80;99.90
21481;DHT22;10902;48.158;8.634;2023-08-12T01:50:56;15.90;99.90
21481;DHT22;10902;48.158;8.634;2023-08-12T01:53:42;15.90;99.90
21481;DHT22;10902;48.158;8.634;2023-08-12T01:56:27;15.90;99.90
21481;DHT22;10902;48.158;8.634;2023-08-12T01:59:13;15.90;99.90
21481;DHT22;10902;48.158;8.634;2023-08-12T02:01:59;15.80;99.90
21481;DHT22;10902;48.158;8.634;2023-08-12T02:04:44;16.00;99.90
21481;DHT22;10902;48.158;8.634;2023-08-12T02:07:30;16.20;99.90
21481;DHT22;10902;48.158;8.634;2023-08-12T02:10:15;16.20;99.90
21481;DHT22;10902;48.158;8.634;2023-08-12T02:13:02;16.40;99.90
21481;DHT22;10902;48.158;8.634;2023-08-12T02:15:48;16.50;99.90
21481;DHT22;10902;48.158;8.634;2023-08-12T02:18:33;16.50;99.90
21481;DHT22;10902;48.158;8.634;2023-08-12T02:21:19;16.50;99.90
21481;DHT22;10902;48.158;8.634;2023-08-12T02:24:05;16.50;99.90
21481;DHT22;10902;48.158;8.634;2023-08-12T02:26:51;16.50;99.90
21481;DHT22;10902;48.158;8.634;2023-08-12T02:29:36;16.50;99.90
21481;DHT22;10902;48.158;8.634;2023-08-12T02:32:22;16.50;99.90
21481;DHT22;10902;48.158;8.634;2023-08-12T02:35:08;16.40;99.90
21481;DHT22;10902;48.158;8.634;2023-08-12T02:37:53;16.30;99.90
21481;DHT22;10902;48.158;8.634;2023-08-12T02:40:39;16.30;99.90
21481;DHT22;10902;48.158;8.634;2023-08-12T02:43:25;16.30;99.90
21481;DHT22;10902;48.158;8.634;2023-08-12T02:46:11;16.30;99.90
21481;DHT22;10902;48.158;8.634;2023-08-12T02:48:56;16.30;99.90
21481;DHT22;10902;48.158;8.634;2023-08-12T02:51:42;16.30;99.90
21481;DHT22;10902;48.158;8.634;2023-08-12T02:54:27;16.30;99.90
21481;DHT22;10902;48.158;8.634;2023-08-12T02:57:13;16.20;99.90
21481;DHT22;10902;48.158;8.634;2023-08-12T02:59:59;16.30;99.90
21481;DHT22;10902;48.158;8.634;2023-08-12T03:02:44;16.50;99.90
21481;DHT22;10902;48.158;8.634;2023-08-12T03:05:32;16.50;99.90
21481;DHT22;10902;48.158;8.634;2023-08-12T03:08:18;16.50;99.90
21481;DHT22;10902;48.158;8.634;2023-08-12T03:11:03;16.50;99.90
21481;DHT22;10902;48.158;8.634;2023-08-12T03:13:49;16.50;99.90
21481;DHT22;10902;48.158;8.634;2023-08-12T03:16:35;16.40;99.90
21481;DHT22;10902;48.158;8.634;2023-08-12T03:19:20;16.30;99.90
21481;DHT22;10902;48.158;8.634;2023-08-12T03:22:06;16.30;99.90
21481;DHT22;10902;48.158;8.634;2023-08-12T03:24:51;16.20;99.90
21481;DHT22;10902;48.158;8.634;2023-08-12T03:27:37;16.10;99.90
21481;DHT22;10902;48.158;8.634;2023-08-12T03:30:23;16.10;99.90
21481;DHT22;10902;48.158;8.634;2023-08-12T03:33:08;16.00;99.90
21481;DHT22;10902;48.158;8.634;2023-08-12T03:35:54;16.00;99.90
21481;DHT22;10902;48.158;8.634;2023-08-12T03:38:39;16.00;99.90
21481;DHT22;10902;48.158;8.634;2023-08-12T03:41:27;16.10;99.90
21481;DHT22;10902;48.158;8.634;2023-08-12T03:44:12;16.10;99.90
21481;DHT22;10902;48.158;8.634;2023-08-12T03:46:58;16.10;99.90
21481;DHT22;10902;48.158;8.634;2023-08-12T03:49:43;16.10;99.90
21481;DHT22;10902;48.158;8.634;2023-08-12T03:52:29;16.10;99.90
21481;DHT22;10902;48.158;8.634;2023-08-12T03:55:15;16.10;99.90
21481;DHT22;10902;48.158;8.634;2023-08-12T03:58:00;16.10;99.90
21481;DHT22;10902;48.158;8.634;2023-08-12T04:00:46;16.10;99.90
21481;DHT22;10902;48.158;8.634;2023-08-12T04:03:32;16.10;99.90
21481;DHT22;10902;48.158;8.634;2023-08-12T04:06:17;16.20;99.90
21481;DHT22;10902;48.158;8.634;2023-08-12T04:09:03;16.20;99.90
21481;DHT22;10902;48.158;8.634;2023-08-12T04:11:49;16.20;99.90
21481;DHT22;10902;48.158;8.634;2023-08-12T04:14:35;16.20;99.90
21481;DHT22;10902;48.158;8.634;2023-08-12T04:17:20;16.20;99.90
21481;DHT22;10902;48.158;8.634;2023-08-12T04:20:06;16.20;99.90
21481;DHT22;10902;48.158;8.634;2023-08-12T04:22:52;16.30;99.90
21481;DHT22;10902;48.158;8.634;2023-08-12T04:25:38;16.30;99.90
21481;DHT22;10902;48.158;8.634;2023-08-12T04:28:23;16.30;99.90
21481;DHT22;10902;48.158;8.634;2023-08-12T04:31:09;16.40;99.90
21481;DHT22;10902;48.158;8.634;2023-08-12T04:33:55;16.40;99.90
21481;DHT22;10902;48.158;8.634;2023-08-12T04:36:40;16.50;99.90
21481;DHT22;10902;48.158;8.634;2023-08-12T04:39:26;16.40;99.90
21481;DHT22;10902;48.158;8.634;2023-08-12T04:42:12;16.40;99.90
21481;DHT22;10902;48.158;8.634;2023-08-12T04:44:58;16.40;99.90
21481;DHT22;10902;48.158;8.634;2023-08-12T04:47:43;16.30;99.90
21481;DHT22;10902;48.158;8.634;2023-08-12T04:50:32;16.30;99.90
21481;DHT22;10902;48.158;8.634;2023-08-12T04:53:20;16.20;99.90
21481;DHT22;10902;48.158;8.634;2023-08-12T04:56:05;16.20;99.90
21481;DHT22;10902;48.158;8.634;2023-08-12T04:58:51;16.20;99.90
21481;DHT22;10902;48.158;8.634;2023-08-12T05:01:36;16.20;99.90
21481;DHT22;10902;48.158;8.634;2023-08-12T05:04:22;16.20;99.90
21481;DHT22;10902;48.158;8.634;2023-08-12T05:07:08;16.20;99.90
21481;DHT22;10902;48.158;8.634;2023-08-12T05:09:53;16.30;99.90
21481;DHT22;10902;48.158;8.634;2023-08-12T05:12:39;16.30;99.90
21481;DHT22;10902;48.158;8.634;2023-08-12T05:15:24;16.30;99.90
21481;DHT22;10902;48.158;8.634;2023-08-12T05:18:10;16.40;99.90
21481;DHT22;10902;48.158;8.634;2023-08-12T05:20:56;16.40;99.90
21481;DHT22;10902;48.158;8.634;2023-08-12T05:23:42;16.40;99.90
21481;DHT22;10902;48.158;8.634;2023-08-12T05:26:28;16.50;99.90
21481;DHT22;10902;48.158;8.634;2023-08-12T05:29:13;16.60;99.90
21481;DHT22;10902;48.158;8.634;2023-08-12T05:31:59;16.70;99.90
21481;DHT22;10902;48.158;8.634;2023-08-12T05:34:44;16.90;99.90
21481;DHT22;10902;48.158;8.634;2023-08-12T05:37:30;17.00;99.90
21481;DHT22;10902;48.158;8.634;2023-08-12T05:40:15;17.30;99.90
21481;DHT22;10902;48.158;8.634;2023-08-12T05:43:01;17.50;99.90
21481;DHT22;10902;48.158;8.634;2023-08-12T05:45:48;17.30;99.90
21481;DHT22;10902;48.158;8.634;2023-08-12T05:48:33;17.30;99.90
21481;DHT22;10902;48.158;8.634;2023-08-12T05:51:19;17.60;99.90
21481;DHT22;10902;48.158;8.634;2023-08-12T05:54:04;17.80;99.90
21481;DHT22;10902;48.158;8.634;2023-08-12T05:56:50;17.90;99.90
21481;DHT22;10902;48.158;8.634;2023-08-12T05:59:36;17.60;99.90
21481;DHT22;10902;48.158;8.634;2023-08-12T06:02:21;17.40;99.90
21481;DHT22;10902;48.158;8.634;2023-08-12T06:05:07;17.40;99.90
21481;DHT22;10902;48.158;8.634;2023-08-12T06:07:53;17.50;99.90
21481;DHT22;10902;48.158;8.634;2023-08-12T06:10:39;17.50;99.90
21481;DHT22;10902;48.158;8.634;2023-08-12T06:13:24;17.60;99.90
21481;DHT22;10902;48.158;8.634;2023-08-12T06:16:10;17.70;99.90
21481;DHT22;10902;48.158;8.634;2023-08-12T06:18:55;17.80;99.90
21481;DHT22;10902;48.158;8.634;2023-08-12T06:21:41;18.00;99.90
21481;DHT22;10902;48.158;8.634;2023-08-12T06:24:27;18.20;99.90
21481;DHT22;10902;48.158;8.634;2023-08-12T06:27:12;18.30;99.90
21481;DHT22;10902;48.158;8.634;2023-08-12T06:29:58;18.40;99.90
21481;DHT22;10902;48.158;8.634;2023-08-12T06:32:43;18.50;99.90
21481;DHT22;10902;48.158;8.634;2023-08-12T06:35:29;18.70;99.90
21481;DHT22;10902;48.158;8.634;2023-08-12T06:38:15;18.70;99.90
21481;DHT22;10902;48.158;8.634;2023-08-12T06:41:00;18.90;99.90
21481;DHT22;10902;48.158;8.634;2023-08-12T06:43:46;18.90;99.90
21481;DHT22;10902;48.158;8.634;2023-08-12T06:46:31;19.00;99.90
21481;DHT22;10902;48.158;8.634;2023-08-12T06:49:18;19.00;99.90
21481;DHT22;10902;48.158;8.634;2023-08-12T06:52:03;19.10;99.90
21481;DHT22;10902;48.158;8.634;2023-08-12T06:54:49;19.20;99.90
21481;DHT22;10902;48.158;8.634;2023-08-12T06:57:35;19.40;99.90
21481;DHT22;10902;48.158;8.634;2023-08-12T07:00:20;19.80;99.90
21481;DHT22;10902;48.158;8.634;2023-08-12T07:03:06;20.30;99.90
21481;DHT22;10902;48.158;8.634;2023-08-12T07:05:53;20.50;99.90
21481;DHT22;10902;48.158;8.634;2023-08-12T07:08:39;21.00;99.90
21481;DHT22;10902;48.158;8.634;2023-08-12T07:11:24;21.30;99.90
21481;DHT22;10902;48.158;8.634;2023-08-12T07:14:10;21.80;99.90
21481;DHT22;10902;48.158;8.634;2023-08-12T07:16:55;22.00;99.90
21481;DHT22;10902;48.158;8.634;2023-08-12T07:19:41;22.20;99.90
21481;DHT22;10902;48.158;8.634;2023-08-12T07:22:26;22.80;99.90
21481;DHT22;10902;48.158;8.634;2023-08-12T07:25:12;22.70;99.90
21481;DHT22;10902;48.158;8.634;2023-08-12T07:27:58;22.60;99.90
21481;DHT22;10902;48.158;8.634;2023-08-12T07:30:44;22.80;99.90
21481;DHT22;10902;48.158;8.634;2023-08-12T07:33:29;23.00;99.90
21481;DHT22;10902;48.158;8.634;2023-08-12T07:36:16;23.20;99.90
21481;DHT22;10902;48.158;8.634;2023-08-12T07:39:01;23.10;99.90
21481;DHT22;10902;48.158;8.634;2023-08-12T07:41:47;23.30;99.90
21481;DHT22;10902;48.158;8.634;2023-08-12T07:44:33;23.60;99.90
21481;DHT22;10902;48.158;8.634;2023-08-12T07:47:18;23.40;99.90
21481;DHT22;10902;48.158;8.634;2023-08-12T07:50:05;23.30;99.90
21481;DHT22;10902;48.158;8.634;2023-08-12T07:52:50;23.40;99.90
21481;DHT22;10902;48.158;8.634;2023-08-12T07:55:37;23.00;99.90
21481;DHT22;10902;48.158;8.634;2023-08-12T07:58:23;23.00;99.90
21481;DHT22;10902;48.158;8.634;2023-08-12T08:01:09;23.20;99.90
21481;DHT22;10902;48.158;8.634;2023-08-12T08:03:54;23.50;99.90
21481;DHT22;10902;48.158;8.634;2023-08-12T08:06:40;24.10;99.90
21481;DHT22;10902;48.158;8.634;2023-08-12T08:09:26;24.20;99.90
21481;DHT22;10902;48.158;8.634;2023-08-12T08:12:11;24.10;99.90
21481;DHT22;10902;48.158;8.634;2023-08-12T08:14:57;24.20;99.90
21481;DHT22;10902;48.158;8.634;2023-08-12T08:17:43;23.70;99.90
21481;DHT22;10902;48.158;8.634;2023-08-12T08:20:28;23.70;99.90
21481;DHT22;10902;48.158;8.634;2023-08-12T08:23:14;23.50;99.90
21481;DHT22;10902;48.158;8.634;2023-08-12T08:25:59;23.20;99.90
21481;DHT22;10902;48.158;8.634;2023-08-12T08:28:45;23.00;99.90
21481;DHT22;10902;48.158;8.634;2023-08-12T08:31:30;23.10;99.90
21481;DHT22;10902;48.158;8.634;2023-08-12T08:34:16;23.30;99.90
21481;DHT22;10902;48.158;8.634;2023-08-12T08:37:02;23.80;99.90
21481;DHT22;10902;48.158;8.634;2023-08-12T08:39:48;24.00;99.90
21481;DHT22;10902;48.158;8.634;2023-08-12T08:42:34;23.80;99.90
21481;DHT22;10902;48.158;8.634;2023-08-12T08:45:21;24.30;99.90
21481;DHT22;10902;48.158;8.634;2023-08-12T08:48:08;24.90;99.90
21481;DHT22;10902;48.158;8.634;2023-08-12T08:50:55;24.60;99.90
21481;DHT22;10902;48.158;8.634;2023-08-12T08:53:41;24.70;99.90
21481;DHT22;10902;48.158;8.634;2023-08-12T08:56:27;24.70;99.90
21481;DHT22;10902;48.158;8.634;2023-08-12T08:59:13;24.70;99.90
21481;DHT22;10902;48.158;8.634;2023-08-12T09:01:59;25.20;99.90
21481;DHT22;10902;48.158;8.634;2023-08-12T09:04:46;25.00;99.90
21481;DHT22;10902;48.158;8.634;2023-08-12T09:07:31;24.90;99.90
21481;DHT22;10902;48.158;8.634;2023-08-12T09:10:20;25.30;99.90
21481;DHT22;10902;48.158;8.634;2023-08-12T09:13:06;24.90;99.90
21481;DHT22;10902;48.158;8.634;2023-08-12T09:15:52;24.60;99.90
21481;DHT22;10902;48.158;8.634;2023-08-12T09:18:41;24.30;99.90
21481;DHT22;10902;48.158;8.634;2023-08-12T09:21:27;23.80;99.90
21481;DHT22;10902;48.158;8.634;2023-08-12T09:24:13;23.10;99.90
21481;DHT22;10902;48.158;8.634;2023-08-12T09:26:59;22.90;99.90
21481;DHT22;10902;48.158;8.634;2023-08-12T09:29:44;22.60;99.90
21481;DHT22;10902;48.158;8.634;2023-08-12T09:32:30;22.30;99.90
21481;DHT22;10902;48.158;8.634;2023-08-12T09:35:16;22.10;99.90
21481;DHT22;10902;48.158;8.634;2023-08-12T09:38:06;22.10;99.90
21481;DHT22;10902;48.158;8.634;2023-08-12T09:40:53;22.10;99.90
21481;DHT22;10902;48.158;8.634;2023-08-12T09:43:43;22.00;99.90
21481;DHT22;10902;48.158;8.634;2023-08-12T09:46:35;21.90;99.90
21481;DHT22;10902;48.158;8.634;2023-08-12T09:49:21;21.90;99.90
21481;DHT22;10902;48.158;8.634;2023-08-12T09:55:53;22.20;99.90
21481;DHT22;10902;48.158;8.634;2023-08-12T09:58:48;22.80;99.90
21481;DHT22;10902;48.158;8.634;2023-08-12T10:05:43;24.10;99.90
21481;DHT22;10902;48.158;8.634;2023-08-12T10:08:41;24.00;99.90
21481;DHT22;10902;48.158;8.634;2023-08-12T10:11:28;23.70;99.90
21481;DHT22;10902;48.158;8.634;2023-08-12T10:14:14;23.50;99.90
21481;DHT22;10902;48.158;8.634;2023-08-12T10:17:00;23.30;99.90
21481;DHT22;10902;48.158;8.634;2023-08-12T10:19:46;23.10;99.90
21481;DHT22;10902;48.158;8.634;2023-08-12T10:22:33;22.70;99.90
21481;DHT22;10902;48.158;8.634;2023-08-12T10:25:19;22.40;99.90
21481;DHT22;10902;48.158;8.634;2023-08-12T10:28:08;22.40;99.90
21481;DHT22;10902;48.158;8.634;2023-08-12T10:30:54;22.60;99.90
21481;DHT22;10902;48.158;8.634;2023-08-12T10:33:40;22.70;99.90
21481;DHT22;10902;48.158;8.634;2023-08-12T10:36:26;22.60;99.90
21481;DHT22;10902;48.158;8.634;2023-08-12T10:39:13;22.30;99.90
21481;DHT22;10902;48.158;8.634;2023-08-12T10:41:59;22.10;99.90
21481;DHT22;10902;48.158;8.634;2023-08-12T10:44:51;22.60;99.90
21481;DHT22;10902;48.158;8.634;2023-08-12T10:51:14;24.60;99.90
21481;DHT22;10902;48.158;8.634;2023-08-12T10:54:15;23.90;99.90
21481;DHT22;10902;48.158;8.634;2023-08-12T10:57:10;23.70;99.90
21481;DHT22;10902;48.158;8.634;2023-08-12T11:00:00;24.30;99.90
21481;DHT22;10902;48.158;8.634;2023-08-12T11:02:48;24.10;99.90
21481;DHT22;10902;48.158;8.634;2023-08-12T11:05:37;23.40;99.90
21481;DHT22;10902;48.158;8.634;2023-08-12T11:08:27;23.00;99.90
21481;DHT22;10902;48.158;8.634;2023-08-12T11:11:21;22.60;99.90
21481;DHT22;10902;48.158;8.634;2023-08-12T11:14:14;22.30;99.90
21481;DHT22;10902;48.158;8.634;2023-08-12T11:17:13;22.40;99.90
21481;DHT22;10902;48.158;8.634;2023-08-12T11:19:59;22.70;99.90
21481;DHT22;10902;48.158;8.634;2023-08-12T11:22:45;22.80;99.90
21481;DHT22;10902;48.158;8.634;2023-08-12T11:25:33;23.00;99.90
21481;DHT22;10902;48.158;8.634;2023-08-12T11:28:18;23.10;99.90
21481;DHT22;10902;48.158;8.634;2023-08-12T11:31:07;23.10;99.90
21481;DHT22;10902;48.158;8.634;2023-08-12T11:33:53;23.20;99.90
21481;DHT22;10902;48.158;8.634;2023-08-12T11:36:39;23.10;99.90
21481;DHT22;10902;48.158;8.634;2023-08-12T11:39:24;23.50;99.90
21481;DHT22;10902;48.158;8.634;2023-08-12T11:42:10;24.00;99.90
21481;DHT22;10902;48.158;8.634;2023-08-12T11:44:56;24.10;99.90
21481;DHT22;10902;48.158;8.634;2023-08-12T11:47:41;24.40;99.90
21481;DHT22;10902;48.158;8.634;2023-08-12T11:50:28;24.30;99.90
21481;DHT22;10902;48.158;8.634;2023-08-12T11:53:13;24.40;99.90
21481;DHT22;10902;48.158;8.634;2023-08-12T11:55:59;24.50;99.90
21481;DHT22;10902;48.158;8.634;2023-08-12T11:58:48;24.80;99.90
21481;DHT22;10902;48.158;8.634;2023-08-12T12:01:36;24.50;99.90
21481;DHT22;10902;48.158;8.634;2023-08-12T12:04:21;24.10;99.90
21481;DHT22;10902;48.158;8.634;2023-08-12T12:07:27;23.80;99.90
21481;DHT22;10902;48.158;8.634;2023-08-12T12:10:14;23.70;99.90
21481;DHT22;10902;48.158;8.634;2023-08-12T12:13:04;23.60;99.90
21481;DHT22;10902;48.158;8.634;2023-08-12T12:15:49;23.50;99.90
21481;DHT22;10902;48.158;8.634;2023-08-12T12:18:35;23.30;99.90
21481;DHT22;10902;48.158;8.634;2023-08-12T12:21:21;22.80;99.90
21481;DHT22;10902;48.158;8.634;2023-08-12T12:24:09;22.10;99.90
21481;DHT22;10902;48.158;8.634;2023-08-12T12:26:56;21.90;99.90
21481;DHT22;10902;48.158;8.634;2023-08-12T12:29:53;21.40;99.90
21481;DHT22;10902;48.158;8.634;2023-08-12T12:33:09;20.90;99.90
21481;DHT22;10902;48.158;8.634;2023-08-12T12:35:55;20.40;99.90
21481;DHT22;10902;48.158;8.634;2023-08-12T12:38:41;20.20;99.90
21481;DHT22;10902;48.158;8.634;2023-08-12T12:41:27;20.10;99.90
21481;DHT22;10902;48.158;8.634;2023-08-12T12:44:12;20.00;99.90
21481;DHT22;10902;48.158;8.634;2023-08-12T12:46:59;20.20;99.90
21481;DHT22;10902;48.158;8.634;2023-08-12T12:49:45;20.40;99.90
21481;DHT22;10902;48.158;8.634;2023-08-12T12:52:30;20.70;99.90
21481;DHT22;10902;48.158;8.634;2023-08-12T12:55:16;21.20;99.90
21481;DHT22;10902;48.158;8.634;2023-08-12T12:58:01;21.50;99.90
21481;DHT22;10902;48.158;8.634;2023-08-12T13:00:47;21.70;99.90
21481;DHT22;10902;48.158;8.634;2023-08-12T13:03:38;22.20;99.90
21481;DHT22;10902;48.158;8.634;2023-08-12T13:10:29;24.50;99.90
21481;DHT22;10902;48.158;8.634;2023-08-12T13:13:38;27.00;99.90
21481;DHT22;10902;48.158;8.634;2023-08-12T13:16:23;27.70;99.90
21481;DHT22;10902;48.158;8.634;2023-08-12T13:19:09;27.80;99.90
21481;DHT22;10902;48.158;8.634;2023-08-12T13:21:55;26.80;99.90
21481;DHT22;10902;48.158;8.634;2023-08-12T13:24:40;26.60;99.90
21481;DHT22;10902;48.158;8.634;2023-08-12T13:27:26;26.50;99.90
21481;DHT22;10902;48.158;8.634;2023-08-12T13:30:11;26.60;99.90
21481;DHT22;10902;48.158;8.634;2023-08-12T13:32:57;27.10;99.90
21481;DHT22;10902;48.158;8.634;2023-08-12T13:35:43;27.40;99.90
21481;DHT22;10902;48.158;8.634;2023-08-12T13:38:29;27.40;99.90
21481;DHT22;10902;48.158;8.634;2023-08-12T13:41:15;27.80;99.90
21481;DHT22;10902;48.158;8.634;2023-08-12T13:44:01;28.30;99.90
21481;DHT22;10902;48.158;8.634;2023-08-12T13:46:47;29.90;99.90
21481;DHT22;10902;48.158;8.634;2023-08-12T13:49:32;31.90;99.90
21481;DHT22;10902;48.158;8.634;2023-08-12T13:52:18;32.30;99.90
21481;DHT22;10902;48.158;8.634;2023-08-12T13:55:05;32.70;99.90
21481;DHT22;10902;48.158;8.634;2023-08-12T13:57:52;33.10;99.90
21481;DHT22;10902;48.158;8.634;2023-08-12T14:00:41;34.10;99.90
21481;DHT22;10902;48.158;8.634;2023-08-12T14:03:27;34.40;99.90
21481;DHT22;10902;48.158;8.634;2023-08-12T14:06:13;36.00;99.90
21481;DHT22;10902;48.158;8.634;2023-08-12T14:08:58;35.90;99.90
21481;DHT22;10902;48.158;8.634;2023-08-12T14:11:44;34.10;99.90
21481;DHT22;10902;48.158;8.634;2023-08-12T14:14:30;33.40;99.90
21481;DHT22;10902;48.158;8.634;2023-08-12T14:17:16;33.40;99.90
21481;DHT22;10902;48.158;8.634;2023-08-12T14:27:28;31.20;99.90
21481;DHT22;10902;48.158;8.634;2023-08-12T14:30:17;29.90;99.90
21481;DHT22;10902;48.158;8.634;2023-08-12T14:33:03;30.00;99.90
21481;DHT22;10902;48.158;8.634;2023-08-12T14:35:49;30.90;99.90
21481;DHT22;10902;48.158;8.634;2023-08-12T14:38:34;31.10;99.90
21481;DHT22;10902;48.158;8.634;2023-08-12T14:41:20;31.40;99.90
21481;DHT22;10902;48.158;8.634;2023-08-12T14:44:06;29.90;99.90
21481;DHT22;10902;48.158;8.634;2023-08-12T14:46:52;28.60;99.90
21481;DHT22;10902;48.158;8.634;2023-08-12T14:49:37;27.70;99.90
21481;DHT22;10902;48.158;8.634;2023-08-12T14:52:23;27.90;99.90
21481;DHT22;10902;48.158;8.634;2023-08-12T14:55:09;27.50;99.90
21481;DHT22;10902;48.158;8.634;2023-08-12T14:57:54;27.20;99.90
21481;DHT22;10902;48.158;8.634;2023-08-12T15:00:40;26.50;99.90
21481;DHT22;10902;48.158;8.634;2023-08-12T15:03:25;26.90;99.90
21481;DHT22;10902;48.158;8.634;2023-08-12T15:06:11;26.70;99.90
21481;DHT22;10902;48.158;8.634;2023-08-12T15:08:57;26.70;99.90
21481;DHT22;10902;48.158;8.634;2023-08-12T15:11:42;27.00;99.90
21481;DHT22;10902;48.158;8.634;2023-08-12T15:14:28;26.70;99.90
21481;DHT22;10902;48.158;8.634;2023-08-12T15:17:13;26.40;99.90
21481;DHT22;10902;48.158;8.634;2023-08-12T15:19:59;26.60;99.90
21481;DHT22;10902;48.158;8.634;2023-08-12T15:22:44;27.00;99.90
21481;DHT22;10902;48.158;8.634;2023-08-12T15:25:30;28.90;99.90
21481;DHT22;10902;48.158;8.634;2023-08-12T15:28:16;29.70;99.90
21481;DHT22;10902;48.158;8.634;2023-08-12T15:31:02;30.70;99.90
21481;DHT22;10902;48.158;8.634;2023-08-12T15:33:47;30.20;99.90
21481;DHT22;10902;48.158;8.634;2023-08-12T15:36:33;29.60;99.90
21481;DHT22;10902;48.158;8.634;2023-08-12T15:39:21;29.40;99.90
21481;DHT22;10902;48.158;8.634;2023-08-12T15:42:07;29.60;99.90
21481;DHT22;10902;48.158;8.634;2023-08-12T15:44:52;30.20;99.90
21481;DHT22;10902;48.158;8.634;2023-08-12T15:47:38;28.40;99.90
21481;DHT22;10902;48.158;8.634;2023-08-12T15:50:23;27.20;99.90
21481;DHT22;10902;48.158;8.634;2023-08-12T15:53:09;26.70;99.90
21481;DHT22;10902;48.158;8.634;2023-08-12T15:55:54;26.30;99.90
21481;DHT22;10902;48.158;8.634;2023-08-12T15:58:40;26.50;99.90
21481;DHT22;10902;48.158;8.634;2023-08-12T16:01:26;27.80;99.90
21481;DHT22;10902;48.158;8.634;2023-08-12T16:04:11;27.00;99.90
21481;DHT22;10902;48.158;8.634;2023-08-12T16:06:57;27.60;99.90
21481;DHT22;10902;48.158;8.634;2023-08-12T16:09:42;28.40;99.90
21481;DHT22;10902;48.158;8.634;2023-08-12T16:12:28;28.60;99.90
21481;DHT22;10902;48.158;8.634;2023-08-12T16:15:14;28.50;99.90
21481;DHT22;10902;48.158;8.634;2023-08-12T16:17:59;28.50;99.90
21481;DHT22;10902;48.158;8.634;2023-08-12T16:20:45;29.00;99.90
21481;DHT22;10902;48.158;8.634;2023-08-12T16:23:30;29.60;99.90
21481;DHT22;10902;48.158;8.634;2023-08-12T16:26:17;27.70;99.90
21481;DHT22;10902;48.158;8.634;2023-08-12T16:29:02;27.90;99.90
21481;DHT22;10902;48.158;8.634;2023-08-12T16:31:48;28.50;99.90
21481;DHT22;10902;48.158;8.634;2023-08-12T16:34:34;28.40;99.90
21481;DHT22;10902;48.158;8.634;2023-08-12T16:37:19;28.50;99.90
21481;DHT22;10902;48.158;8.634;2023-08-12T16:40:05;28.50;99.90
21481;DHT22;10902;48.158;8.634;2023-08-12T16:42:51;28.20;99.90
21481;DHT22;10902;48.158;8.634;2023-08-12T16:45:37;28.00;99.90
21481;DHT22;10902;48.158;8.634;2023-08-12T16:48:22;26.80;99.90
21481;DHT22;10902;48.158;8.634;2023-08-12T16:51:08;27.00;99.90
21481;DHT22;10902;48.158;8.634;2023-08-12T16:53:54;28.00;99.90
21481;DHT22;10902;48.158;8.634;2023-08-12T16:56:39;28.10;99.90
21481;DHT22;10902;48.158;8.634;2023-08-12T16:59:25;28.50;99.90
21481;DHT22;10902;48.158;8.634;2023-08-12T17:02:11;28.90;99.90
21481;DHT22;10902;48.158;8.634;2023-08-12T17:04:57;29.00;99.90
21481;DHT22;10902;48.158;8.634;2023-08-12T17:07:43;28.80;99.90
21481;DHT22;10902;48.158;8.634;2023-08-12T17:10:28;28.90;99.90
21481;DHT22;10902;48.158;8.634;2023-08-12T17:13:14;27.50;99.90
21481;DHT22;10902;48.158;8.634;2023-08-12T17:16:00;27.70;99.90
21481;DHT22;10902;48.158;8.634;2023-08-12T17:18:46;28.40;99.90
21481;DHT22;10902;48.158;8.634;2023-08-12T17:21:31;28.70;99.90
21481;DHT22;10902;48.158;8.634;2023-08-12T17:24:17;30.20;99.90
21481;DHT22;10902;48.158;8.634;2023-08-12T17:27:03;30.30;99.90
21481;DHT22;10902;48.158;8.634;2023-08-12T17:29:48;30.50;99.90
21481;DHT22;10902;48.158;8.634;2023-08-12T17:32:34;30.20;99.90
21481;DHT22;10902;48.158;8.634;2023-08-12T17:35:20;30.20;99.90
21481;DHT22;10902;48.158;8.634;2023-08-12T17:38:06;29.90;99.90
21481;DHT22;10902;48.158;8.634;2023-08-12T17:40:52;28.90;99.90
21481;DHT22;10902;48.158;8.634;2023-08-12T17:43:37;27.10;99.90
21481;DHT22;10902;48.158;8.634;2023-08-12T17:46:23;25.60;99.90
21481;DHT22;10902;48.158;8.634;2023-08-12T17:49:08;24.60;99.90
21481;DHT22;10902;48.158;8.634;2023-08-12T17:51:54;23.80;99.90
21481;DHT22;10902;48.158;8.634;2023-08-12T17:54:40;23.40;99.90